createdAt,value
2022-09-18T06:55:20.901Z,26.50
2022-09-18T06:57:55.288Z,18.00
2022-09-18T07:00:24.043Z,17.80
2022-09-18T07:02:58.262Z,17.80
2022-09-18T07:05:27.698Z,17.70
2022-09-18T07:07:55.837Z,17.60
2022-09-18T07:10:24.360Z,17.70
2022-09-18T07:12:57.248Z,17.70
2022-09-18T07:15:26.441Z,17.80
2022-09-18T07:17:59.433Z,17.80
2022-09-18T07:20:27.973Z,17.80
2022-09-18T07:22:57.232Z,17.90
2022-09-18T07:25:25.757Z,17.90
2022-09-18T07:27:54.064Z,17.90
2022-09-18T07:30:22.557Z,17.90
2022-09-18T07:32:50.706Z,17.90
2022-09-18T07:35:20.315Z,18.00
2022-09-18T07:37:48.501Z,18.00
2022-09-18T07:40:16.808Z,17.90
2022-09-18T07:42:44.990Z,18.00
2022-09-18T07:45:13.168Z,18.00
2022-09-18T07:47:41.383Z,18.10
2022-09-18T07:50:15.646Z,18.10
2022-09-18T07:52:52.032Z,18.10
2022-09-18T07:55:20.891Z,18.10
2022-09-18T07:57:49.495Z,18.20
2022-09-18T08:00:17.921Z,18.20
2022-09-18T08:02:46.215Z,18.20
2022-09-18T08:05:14.598Z,18.30
2022-09-18T08:07:42.754Z,18.30
2022-09-18T08:10:12.661Z,18.30
2022-09-18T08:12:40.839Z,18.40
2022-09-18T08:15:10.051Z,18.40
2022-09-18T08:17:45.463Z,18.40
2022-09-18T08:20:14.185Z,18.50
2022-09-18T08:22:42.889Z,18.60
2022-09-18T08:25:12.581Z,18.60
2022-09-18T08:27:41.379Z,18.70
2022-09-18T08:30:11.428Z,18.70
2022-09-18T08:32:39.601Z,18.70
2022-09-18T08:35:08.671Z,18.80
2022-09-18T08:37:36.854Z,18.90
2022-09-18T08:40:06.106Z,18.90
2022-09-18T08:42:40.753Z,18.90
2022-09-18T08:45:29.781Z,19.00
2022-09-18T08:48:03.721Z,19.10
2022-09-18T08:50:38.571Z,19.10
2022-09-18T08:53:13.281Z,19.20
2022-09-18T08:55:43.831Z,19.30
2022-09-18T08:58:15.830Z,19.30
2022-09-18T09:00:48.088Z,19.30
2022-09-18T09:03:27.726Z,19.40
2022-09-18T09:05:59.422Z,19.50
2022-09-18T09:08:59.437Z,19.50
2022-09-18T09:11:38.131Z,19.50
2022-09-18T09:14:39.700Z,19.60
2022-09-18T09:17:18.511Z,19.70
2022-09-18T09:19:54.447Z,19.70
2022-09-18T09:22:33.895Z,19.70
2022-09-18T09:25:12.596Z,19.70
2022-09-18T09:27:45.087Z,19.80
2022-09-18T09:30:18.392Z,19.80
2022-09-18T09:32:51.048Z,19.90
2022-09-18T09:35:26.851Z,20.00
2022-09-18T09:37:55.672Z,20.00
2022-09-18T09:40:32.402Z,20.00
2022-09-18T09:43:06.675Z,20.10
2022-09-18T09:45:45.764Z,20.10
2022-09-18T09:48:17.755Z,20.20
2022-09-18T09:50:52.649Z,20.30
2022-09-18T09:53:23.526Z,20.30
2022-09-18T09:56:01.630Z,20.40
2022-09-18T09:58:42.828Z,20.40
2022-09-18T10:01:18.521Z,20.50
2022-09-18T10:03:56.294Z,20.50
2022-09-18T10:06:42.710Z,20.50
2022-09-18T10:09:28.375Z,20.50
2022-09-18T10:12:00.344Z,20.60
2022-09-18T10:14:31.431Z,20.60
2022-09-18T10:17:04.500Z,20.60
2022-09-18T10:19:37.884Z,20.70
2022-09-18T10:22:08.877Z,20.70
2022-09-18T10:24:47.043Z,20.80
2022-09-18T10:27:16.227Z,20.80
2022-09-18T10:29:44.710Z,20.80
2022-09-18T10:32:32.281Z,20.80
2022-09-18T10:35:00.442Z,20.80
2022-09-18T10:37:42.220Z,20.80
2022-09-18T10:40:30.530Z,20.90
2022-09-18T10:43:00.013Z,20.90
2022-09-18T10:45:30.343Z,21.00
2022-09-18T10:48:13.802Z,21.00
2022-09-18T10:50:54.043Z,21.00
2022-09-18T10:53:31.554Z,21.10
2022-09-18T10:56:05.925Z,21.00
2022-09-18T10:58:35.273Z,21.10
2022-09-18T11:01:06.390Z,21.10
2022-09-18T11:03:48.126Z,21.10
2022-09-18T11:06:18.968Z,21.20
2022-09-18T11:08:50.514Z,21.30
2022-09-18T11:11:26.186Z,21.30
2022-09-18T11:13:59.353Z,21.30
2022-09-18T11:16:30.869Z,21.30
2022-09-18T11:19:07.694Z,21.40
2022-09-18T11:21:45.331Z,21.40
2022-09-18T11:24:21.852Z,21.40
2022-09-18T11:26:51.011Z,21.50
2022-09-18T11:29:22.755Z,21.50
2022-09-18T11:31:55.210Z,21.50
2022-09-18T11:34:28.711Z,21.50
2022-09-18T11:37:01.891Z,21.50
2022-09-18T11:39:38.839Z,21.50
2022-09-18T11:42:13.570Z,21.60
2022-09-18T11:44:42.380Z,21.60
2022-09-18T11:47:34.092Z,21.60
2022-09-18T11:50:18.078Z,21.70
2022-09-18T11:52:49.086Z,21.70
2022-09-18T11:55:25.188Z,21.70
2022-09-18T11:57:56.985Z,21.80
2022-09-18T12:00:29.948Z,21.80
2022-09-18T12:03:13.652Z,21.80
2022-09-18T12:05:52.200Z,21.80
2022-09-18T12:08:26.225Z,21.90
2022-09-18T12:11:07.215Z,21.90
2022-09-18T12:13:48.094Z,21.90
2022-09-18T12:16:21.889Z,21.90
2022-09-18T12:18:56.820Z,21.90
2022-09-18T12:21:37.523Z,21.90
2022-09-18T12:24:13.183Z,22.00
2022-09-18T12:26:49.523Z,22.00
2022-09-18T12:29:34.337Z,22.00
2022-09-18T12:32:14.191Z,22.00
2022-09-18T12:34:50.651Z,22.00
2022-09-18T12:37:31.495Z,22.00
2022-09-18T12:40:31.205Z,22.00
2022-09-18T12:43:25.145Z,22.00
2022-09-18T12:46:21.430Z,22.10
2022-09-18T12:49:09.471Z,22.10
2022-09-18T12:51:43.137Z,22.10
2022-09-18T12:54:37.932Z,22.10
2022-09-18T12:57:27.763Z,22.20
2022-09-18T12:59:59.043Z,22.10
2022-09-18T13:02:51.342Z,22.10
2022-09-18T13:05:25.285Z,22.10
2022-09-18T13:07:57.847Z,22.10
2022-09-18T13:10:30.856Z,22.10
2022-09-18T13:13:03.678Z,22.10
2022-09-18T13:15:36.415Z,22.10
2022-09-18T13:18:18.681Z,22.10
2022-09-18T13:20:47.813Z,22.10
2022-09-18T13:23:20.535Z,22.10
2022-09-18T13:25:53.102Z,22.20
2022-09-18T13:28:23.488Z,22.20
2022-09-18T13:31:24.643Z,22.20
2022-09-18T13:33:56.131Z,22.20
2022-09-18T13:36:27.098Z,22.10
2022-09-18T13:38:57.272Z,22.10
2022-09-18T13:41:26.962Z,22.20
2022-09-18T13:43:58.013Z,22.20
2022-09-18T13:46:39.708Z,22.30
2022-09-18T13:49:30.077Z,22.30
2022-09-18T13:52:18.373Z,22.30
2022-09-18T13:55:01.535Z,22.30
2022-09-18T13:57:33.323Z,22.30
2022-09-18T14:00:06.776Z,22.30
2022-09-18T14:02:36.682Z,22.30
2022-09-18T14:05:31.059Z,22.40
2022-09-18T14:08:34.949Z,22.40
2022-09-18T14:11:16.337Z,22.40
2022-09-18T14:13:55.576Z,22.40
2022-09-18T14:16:43.692Z,22.40
2022-09-18T14:19:33.567Z,22.50
2022-09-18T14:22:02.906Z,22.50
2022-09-18T14:24:38.808Z,22.50
2022-09-18T14:27:43.053Z,22.50
2022-09-18T14:30:20.317Z,22.60
2022-09-18T14:33:19.649Z,22.60
2022-09-18T14:36:01.534Z,22.60
2022-09-18T14:38:34.389Z,22.60
2022-09-18T14:41:19.612Z,22.60
2022-09-18T14:43:55.963Z,22.60
2022-09-18T14:46:26.253Z,22.60
2022-09-18T14:48:55.559Z,22.60
2022-09-18T14:51:25.569Z,22.70
2022-09-18T14:53:56.029Z,22.70
2022-09-18T14:56:28.758Z,22.70
2022-09-18T14:59:00.842Z,22.70
2022-09-18T15:01:31.078Z,22.70
2022-09-18T15:04:01.302Z,22.70
2022-09-18T15:06:35.092Z,22.70
2022-09-18T15:09:03.850Z,22.60
2022-09-18T15:11:46.877Z,22.70
2022-09-18T15:14:24.411Z,22.70
2022-09-18T15:16:56.767Z,22.70
2022-09-18T15:19:25.072Z,22.70
2022-09-18T15:21:54.331Z,22.70
2022-09-18T15:24:22.917Z,22.70
2022-09-18T15:26:56.264Z,22.80
2022-09-18T15:29:31.026Z,22.80
2022-09-18T15:31:59.807Z,22.80
2022-09-18T15:34:29.383Z,22.80
2022-09-18T15:37:00.706Z,22.80
2022-09-18T15:39:34.045Z,22.80
2022-09-18T15:42:20.243Z,22.80
2022-09-18T15:45:21.967Z,22.80
2022-09-18T15:47:50.972Z,22.80
2022-09-18T15:50:38.437Z,22.80
2022-09-18T15:53:30.699Z,22.80
2022-09-18T15:56:18.198Z,22.80
2022-09-18T15:58:52.053Z,22.80
2022-09-18T16:01:32.064Z,22.80
2022-09-18T16:04:08.922Z,22.80
2022-09-18T16:06:49.278Z,22.80
2022-09-18T16:09:34.911Z,22.80
2022-09-18T16:12:23.355Z,22.80
2022-09-18T16:15:01.603Z,22.80
2022-09-18T16:17:40.057Z,22.80
2022-09-18T16:20:32.302Z,22.80
2022-09-18T16:23:19.718Z,22.80
2022-09-18T16:26:01.443Z,22.80
2022-09-18T16:28:32.268Z,22.70
2022-09-18T16:31:00.550Z,22.70
2022-09-18T16:33:32.541Z,22.70
2022-09-18T16:36:04.060Z,22.80
2022-09-18T16:38:32.628Z,22.70
2022-09-18T16:41:01.115Z,22.70
2022-09-18T16:43:29.827Z,22.70
2022-09-18T16:45:58.035Z,22.70
2022-09-18T16:48:26.404Z,22.70
2022-09-18T16:50:55.984Z,22.70
2022-09-18T16:53:24.167Z,22.70
2022-09-18T16:55:55.870Z,22.70
2022-09-18T16:58:25.814Z,22.70
2022-09-18T17:00:54.108Z,22.60
2022-09-18T17:03:22.470Z,22.60
2022-09-18T17:05:50.657Z,22.60
2022-09-18T17:08:20.298Z,22.60
2022-09-18T17:10:48.531Z,22.60
2022-09-18T17:13:16.993Z,22.50
2022-09-18T17:15:45.201Z,22.50
2022-09-18T17:18:13.461Z,22.50
2022-09-18T17:20:41.784Z,22.50
2022-09-18T17:23:09.912Z,22.50
2022-09-18T17:25:39.493Z,22.50
2022-09-18T17:28:07.681Z,22.40
2022-09-18T17:30:35.896Z,22.40
2022-09-18T17:33:04.022Z,22.40
2022-09-18T17:35:32.142Z,22.40
2022-09-18T17:38:00.702Z,22.30
2022-09-18T17:40:28.882Z,22.30
2022-09-18T17:42:58.630Z,22.30
2022-09-18T17:45:26.904Z,22.20
2022-09-18T17:47:55.216Z,22.20
2022-09-18T17:50:24.814Z,22.10
2022-09-18T17:52:52.985Z,22.10
2022-09-18T17:55:21.146Z,22.00
2022-09-18T17:57:52.901Z,21.90
2022-09-18T18:00:22.703Z,21.90
2022-09-18T18:02:51.002Z,21.90
2022-09-18T18:05:19.294Z,21.80
2022-09-18T18:07:47.581Z,21.70
2022-09-18T18:10:15.928Z,21.60
2022-09-18T18:12:44.708Z,21.60
2022-09-18T18:15:13.474Z,21.50
2022-09-18T18:17:44.381Z,21.50
2022-09-18T18:20:12.643Z,21.40
2022-09-18T18:22:41.072Z,21.40
2022-09-18T18:25:12.607Z,21.30
2022-09-18T18:27:40.737Z,21.30
2022-09-18T18:30:10.255Z,21.30
2022-09-18T18:32:41.463Z,21.20
2022-09-18T18:35:11.674Z,21.20
2022-09-18T18:37:39.913Z,21.10
2022-09-18T18:40:09.027Z,21.10
2022-09-18T18:42:37.216Z,21.00
2022-09-18T18:45:06.213Z,21.00
2022-09-18T18:47:34.537Z,21.00
2022-09-18T18:50:02.740Z,20.90
2022-09-18T18:52:32.393Z,20.90
2022-09-18T18:55:01.970Z,20.90
2022-09-18T18:57:30.155Z,20.80
2022-09-18T18:59:58.347Z,20.80
2022-09-18T19:02:26.567Z,20.80
2022-09-18T19:05:03.159Z,20.80
2022-09-18T19:07:33.353Z,20.80
2022-09-18T19:10:01.595Z,20.80
2022-09-18T19:12:31.797Z,20.70
2022-09-18T19:14:59.922Z,20.70
2022-09-18T19:17:29.316Z,20.60
2022-09-18T19:19:59.010Z,20.60
2022-09-18T19:22:27.652Z,20.60
2022-09-18T19:24:58.067Z,20.60
2022-09-18T19:27:26.921Z,20.60
2022-09-18T19:29:55.835Z,20.50
2022-09-18T19:32:24.034Z,20.50
2022-09-18T19:34:52.478Z,20.50
2022-09-18T19:37:20.927Z,20.50
2022-09-18T19:39:50.415Z,20.40
2022-09-18T19:42:20.449Z,20.40
2022-09-18T19:44:51.101Z,20.40
2022-09-18T19:47:25.212Z,20.40
2022-09-18T19:49:55.321Z,20.40
2022-09-18T19:52:26.375Z,20.40
2022-09-18T19:54:56.591Z,20.40
2022-09-18T19:57:28.561Z,20.30
2022-09-18T19:59:58.629Z,20.30
2022-09-18T20:02:27.560Z,20.30
2022-09-18T20:04:57.231Z,20.30
2022-09-18T20:07:26.268Z,20.30
2022-09-18T20:09:54.769Z,20.20
2022-09-18T20:12:23.070Z,20.20
2022-09-18T20:14:52.621Z,20.20
2022-09-18T20:17:20.762Z,20.20
2022-09-18T20:19:48.884Z,20.10
2022-09-18T20:22:17.163Z,20.10
2022-09-18T20:24:45.694Z,20.00
2022-09-18T20:27:15.381Z,20.00
2022-09-18T20:29:43.740Z,20.00
2022-09-18T20:32:14.091Z,20.00
2022-09-18T20:34:47.120Z,20.00
2022-09-18T20:37:16.082Z,20.00
2022-09-18T20:39:44.564Z,20.00
2022-09-18T20:42:12.715Z,20.00
2022-09-18T20:44:40.909Z,20.00
2022-09-18T20:47:09.161Z,20.00
2022-09-18T20:49:39.784Z,20.00
2022-09-18T20:52:11.282Z,20.00
2022-09-18T20:54:42.425Z,20.00
2022-09-18T20:57:10.990Z,20.00
2022-09-18T20:59:41.488Z,20.00
2022-09-18T21:02:10.479Z,20.00
2022-09-18T21:04:41.154Z,20.00
2022-09-18T21:07:10.668Z,20.00
2022-09-18T21:09:38.883Z,20.00
2022-09-18T21:12:07.534Z,19.90
2022-09-18T21:14:36.939Z,19.90
2022-09-18T21:17:10.769Z,19.90
2022-09-18T21:19:40.354Z,19.90
2022-09-18T21:22:08.606Z,19.90
2022-09-18T21:24:36.783Z,19.90
2022-09-18T21:27:06.715Z,19.90
2022-09-18T21:29:34.879Z,19.90
2022-09-18T21:32:03.380Z,19.90
2022-09-18T21:34:34.199Z,19.90
2022-09-18T21:37:07.261Z,19.90
2022-09-18T21:39:37.498Z,19.80
2022-09-18T21:42:09.438Z,19.80
2022-09-18T21:44:37.708Z,19.80
2022-09-18T21:47:07.926Z,19.80
2022-09-18T21:49:36.562Z,19.80
2022-09-18T21:52:07.722Z,19.80
2022-09-18T21:54:36.080Z,19.70
2022-09-18T21:57:04.938Z,19.70
2022-09-18T21:59:36.497Z,19.70
2022-09-18T22:02:05.678Z,19.70
2022-09-18T22:04:34.024Z,19.60
2022-09-18T22:07:02.707Z,19.60
2022-09-18T22:09:33.741Z,19.60
2022-09-18T22:12:02.319Z,19.60
2022-09-18T22:14:32.495Z,19.60
2022-09-18T22:17:01.444Z,19.60
2022-09-18T22:19:30.335Z,19.60
2022-09-18T22:21:58.597Z,19.60
2022-09-18T22:24:28.544Z,19.60
2022-09-18T22:27:00.554Z,19.50
2022-09-18T22:29:30.724Z,19.50
2022-09-18T22:31:59.790Z,19.50
2022-09-18T22:34:29.956Z,19.50
2022-09-18T22:36:59.381Z,19.50
2022-09-18T22:39:28.644Z,19.50
2022-09-18T22:41:58.224Z,19.50
2022-09-18T22:44:26.400Z,19.50
2022-09-18T22:46:54.958Z,19.40
2022-09-18T22:49:24.964Z,19.50
2022-09-18T22:51:53.436Z,19.50
2022-09-18T22:54:24.783Z,19.50
2022-09-18T22:56:53.762Z,19.40
2022-09-18T22:59:25.788Z,19.40
2022-09-18T23:01:56.637Z,19.40
2022-09-18T23:04:29.098Z,19.40
2022-09-18T23:06:58.046Z,19.40
2022-09-18T23:09:27.009Z,19.40
2022-09-18T23:11:55.245Z,19.50
2022-09-18T23:14:27.683Z,19.40
2022-09-18T23:16:56.886Z,19.40
2022-09-18T23:19:27.146Z,19.40
2022-09-18T23:21:56.270Z,19.20
2022-09-18T23:24:24.949Z,19.20
2022-09-18T23:26:54.844Z,19.10
2022-09-18T23:29:25.753Z,19.20
2022-09-18T23:31:57.112Z,19.20
2022-09-18T23:34:28.877Z,19.20
2022-09-18T23:36:58.557Z,19.20
2022-09-18T23:39:29.627Z,19.20
2022-09-18T23:41:59.370Z,19.20
2022-09-18T23:44:31.195Z,19.20
2022-09-18T23:47:00.419Z,19.20
2022-09-18T23:49:29.081Z,19.20
2022-09-18T23:51:57.616Z,19.10
2022-09-18T23:54:27.633Z,19.10
2022-09-18T23:56:56.099Z,19.10
2022-09-18T23:59:26.185Z,19.10
